Latest Coastal Weather Observations for Rottnest Island

IDW60701

Issued at 12:53 am WST Saturday 29 July 2017 (issued every 10 minutes, with the page automatically refreshed every 10 minutes)

About coastal observations | Map of coastal stations | Coastal observations for WA | Marine services | Other Formats
Station Details ID: 009193 Name: ROTTNEST ISLAND Lat: -32.01 Lon: 115.50 Height: 43.1 m
Data from the previous 72 hours. | See also: Recent months at Rottnest Island
Date/Time
WST
Temp
°C
Wind Pressure Rain since
9am
mm
Weather Cloud Vis
km
Sea
Height
m
Swell
Dir  Spd
kts
Gust
kts
hPa Trend Height
m
Period
s
Dir
29/12:32am 11.4 W 19 30 1013.0 - 5.2 - - - - - - -
29/12:30am 11.0 W 19 29 1013.1 - 5.2 - - - - - - -
29/12:00am 11.4 WSW 28 38 1012.7 - 5.2 Recent precip. - - - - - -
 
Date/Time
WST
Temp
°C
Wind Pressure Rain since
9am
mm
Weather Cloud Vis
km
Sea
Height
m
Swell
Dir  Spd
kts
Gust
kts
hPa Trend Height
m
Period
s
Dir
28/11:30pm 12.5 WSW 27 40 1012.6 - 5.0 - - - - - - -
28/11:17pm 11.8 WSW 27 41 1012.6 - 5.0 - - - - - - -
28/11:15pm 11.7 WSW 29 45 1012.6 - 5.0 - - - - - - -
28/11:07pm 12.5 WSW 26 45 1012.1 - 5.0 - - - - - - -
28/11:06pm 12.7 WSW 25 45 1012.0 - 5.0 - - - - - - -
28/11:04pm 13.2 WSW 23 33 1012.2 - 5.0 - - - - - - -
28/11:00pm 12.7 WSW 24 31 1012.2 - 5.0 - - - - - - -
28/10:45pm 12.2 WSW 26 37 1012.0 - 5.0 - - - - - - -
28/10:39pm 13.1 WSW 19 34 1012.0 - 5.0 - - - - - - -
28/10:30pm 12.4 WSW 21 29 1011.9 - 5.0 - - - - - - -
28/10:09pm 13.2 WSW 21 35 1011.7 - 5.0 - - - - - - -
28/10:00pm 12.9 WSW 21 28 1011.9 - 5.0 - - - - - - -
28/09:32pm 12.4 WSW 23 33 1011.8 - 5.0 - - - - - - -
28/09:30pm 12.1 WSW 23 32 1011.7 - 5.0 - - - - - - -
28/09:01pm 13.3 W 25 36 1011.2 - 4.8 - - - - - - -
28/09:00pm 13.1 W 24 33 1011.3 - 4.8 Recent precip. - - - - - -
28/08:32pm 12.8 W 23 47 1010.6 - 4.6 - - - - - - -
28/08:30pm 14.3 W 20 29 1010.7 - 4.6 - - - - - - -
28/08:08pm 13.2 W 23 33 1010.7 - 4.6 - - - - - - -
28/08:00pm 13.9 WSW 26 35 1010.8 - 4.6 - - - - - - -
28/07:37pm 14.7 W 21 31 1010.4 - 4.6 - - - - - - -
28/07:30pm 14.4 W 19 27 1010.3 - 4.6 - - - - - - -
28/07:09pm 13.6 W 17 27 1010.6 - 4.6 - - - - - - -
28/07:00pm 13.5 W 17 25 1010.6 - 4.6 - - - - - - -
28/06:30pm 13.8 W 24 34 1010.3 - 4.6 - - - - - - -
28/06:01pm 12.6 W 24 34 1010.0 - 4.6 - - - - - - -
28/06:00pm 12.7 W 24 32 1010.1 - 4.6 Recent precip. - - - - - -
28/05:30pm 12.3 W 23 37 1010.1 - 4.4 - - - - - - -
28/05:01pm 14.1 W 23 38 1009.6 - 3.6 - - - - - - -
28/05:00pm 14.5 W 23 29 1009.6 - 3.6 - - - - - - -
28/04:30pm 14.5 W 25 36 1009.1 - 3.6 - - - - - - -
28/04:00pm 13.2 W 27 39 1009.2 - 3.6 - - - - - - -
28/03:37pm 12.5 W 24 34 1009.2 - 3.4 - - - - - - -
28/03:30pm 13.0 W 24 33 1009.1 - 3.4 - - - - - - -
28/03:27pm 14.0 W 23 33 1009.0 - 3.4 - - - - - - -
28/03:00pm 15.2 WNW 25 32 1008.2 - 3.4 Recent precip. - - - - - -
28/02:30pm 13.7 W 23 31 1008.8 - 3.4 - - - - - - -
28/02:09pm 14.1 WNW 24 34 1008.7 - 3.0 - - - - - - -
28/02:00pm 14.2 WNW 23 31 1008.6 - 3.0 - - - - - - -
28/01:30pm 13.6 WNW 27 39 1008.4 - 1.0 - - - - - - -
28/01:13pm 15.1 W 23 36 1008.4 - 0.6 - - - - - - -
28/01:00pm 14.3 W 23 31 1008.7 - 0.6 - - - - - - -
28/12:30pm 17.0 WNW 25 32 1008.7 - 0.0 - - - - - - -
28/12:14pm 16.5 WNW 25 35 1008.8 - 0.0 - - - - - - -
28/12:00pm 16.2 W 21 28 1009.2 - 0.0 - - - - - - -
28/11:30am 16.5 W 24 34 1009.4 - 0.0 - - - - - - -
28/11:29am 15.9 W 24 34 1009.4 - 0.0 - - - - - - -
28/11:00am 17.2 WNW 25 32 1009.1 - 0.0 - - - - - - -
28/10:30am 15.7 W 29 42 1009.4 - 0.0 - - - - - - -
28/10:10am 16.3 W 24 34 1009.3 - 0.0 - - - - - - -
28/10:00am 16.5 W 27 35 1009.2 - 0.0 - - - - - - -
28/09:30am 15.9 W 23 34 1008.9 - 0.0 - - - - - - -
28/09:11am 17.0 WNW 27 37 1008.4 - 0.0 - - - - - - -
28/09:00am 17.0 WNW 30 37 1008.1 - 4.0 - - - - - - -
28/08:30am 16.8 W 25 37 1008.0 - 4.0 - - - - - - -
28/08:00am 16.9 WNW 27 37 1007.8 - 4.0 - - - - - - -
28/07:36am 17.1 WNW 29 39 1007.3 - 4.0 - - - - - - -
28/07:30am 17.1 WNW 30 37 1007.4 - 4.0 - - - - - - -
28/07:01am 17.1 WNW 28 39 1007.0 - 4.0 - - - - - - -
28/07:00am 17.0 WNW 28 37 1007.0 - 4.0 - - - - - - -
28/06:35am 16.9 WNW 27 37 1006.8 - 4.0 - - - - - - -
28/06:30am 16.8 WNW 29 37 1006.9 - 4.0 - - - - - - -
28/06:10am 17.2 WNW 28 39 1006.9 - 4.0 - - - - - - -
28/06:00am 17.3 WNW 30 37 1006.9 - 4.0 - - - - - - -
28/05:30am 17.2 W 28 38 1006.8 - 4.0 - - - - - - -
28/05:10am 17.1 W 28 39 1006.6 - 4.0 - - - - - - -
28/05:00am 17.3 W 29 37 1006.7 - 4.0 - - - - - - -
28/04:30am 17.2 WNW 29 41 1006.8 - 4.0 - - - - - - -
28/04:07am 17.1 WNW 29 39 1006.6 - 4.0 - - - - - - -
28/04:00am 17.1 W 29 37 1006.5 - 4.0 - - - - - - -
28/03:30am 17.3 WNW 25 35 1006.6 - 4.0 - - - - - - -
28/03:12am 17.2 WNW 27 37 1006.5 - 4.0 - - - - - - -
28/03:00am 17.1 WNW 28 36 1006.5 - 4.0 - - - - - - -
28/02:30am 16.9 W 24 32 1006.8 - 4.0 - - - - - - -
28/02:00am 16.6 W 23 32 1006.6 - 4.0 - - - - - - -
28/01:35am 16.2 WNW 29 39 1006.7 - 3.8 - - - - - - -
28/01:30am 16.7 WNW 30 39 1005.9 - 3.6 - - - - - - -
28/01:15am 16.5 WNW 31 41 1006.5 - 2.6 - - - - - - -
28/01:03am 17.0 WNW 32 43 1006.5 - 1.0 - - - - - - -
28/01:00am 17.8 NW 33 43 1006.4 - 1.0 - - - - - - -
28/12:40am 19.4 NW 31 41 1006.4 - 1.0 - - - - - - -
28/12:30am 19.4 NW 31 40 1006.3 - 1.0 - - - - - - -
28/12:00am 19.4 NW 33 43 1006.6 - 1.0 - - - - - - -
 
Date/Time
WST
Temp
°C
Wind Pressure Rain since
9am
mm
Weather Cloud Vis
km
Sea
Height
m
Swell
Dir  Spd
kts
Gust
kts
hPa Trend Height
m
Period
s
Dir
27/11:30pm 19.3 NW 32 43 1007.2 - 1.0 - - - - - - -
27/11:00pm 19.3 NW 33 43 1007.5 - 1.0 - - - - - - -
27/10:30pm 19.2 NW 29 39 1007.8 - 1.0 - - - - - - -
27/10:23pm 19.3 NW 32 42 1008.0 - 1.0 - - - - - - -
27/10:00pm 19.2 NW 31 39 1008.2 - 1.0 - - - - - - -
27/09:30pm 19.4 NW 31 42 1008.5 - 1.0 - - - - - - -
27/09:00pm 19.2 NW 28 38 1008.7 - 1.0 - - - - - - -
27/08:34pm 18.7 NW 26 36 1008.8 - 1.0 - - - - - - -
27/08:30pm 18.6 NW 27 36 1009.0 - 1.0 - - - - - - -
27/08:00pm 18.1 NNW 30 45 1009.0 - 1.0 - - - - - - -
27/07:50pm 19.2 NW 27 37 1008.9 - 1.0 - - - - - - -
27/07:30pm 19.0 NW 27 36 1009.5 - 1.0 - - - - - - -
27/07:03pm 19.5 NW 29 40 1009.6 - 1.0 - - - - - - -
27/07:00pm 19.4 NW 29 36 1009.5 - 1.0 - - - - - - -
27/06:40pm 19.5 NW 27 37 1009.7 - 1.0 - - - - - - -
27/06:30pm 19.4 NW 27 35 1009.8 - 1.0 - - - - - - -
27/06:17pm 19.5 NNW 30 40 1009.7 - 1.0 - - - - - - -
27/06:00pm 19.6 NNW 31 40 1009.7 - 1.0 - - - - - - -
27/05:32pm 19.5 NNW 27 37 1009.8 - 1.0 - - - - - - -
27/05:30pm 19.4 NNW 27 35 1009.8 - 1.0 - - - - - - -
27/05:06pm 19.5 NNW 29 39 1009.6 - 1.0 - - - - - - -
27/05:00pm 19.4 NNW 27 36 1009.9 - 1.0 - - - - - - -
27/04:30pm 19.5 NNW 31 41 1009.9 - 1.0 - - - - - - -
27/04:07pm 18.7 NW 29 39 1010.2 - 1.0 - - - - - - -
27/04:00pm 17.8 NNW 32 41 1009.8 - 1.0 - - - - - - -
27/03:37pm 19.7 NNW 30 40 1010.2 - 0.8 - - - - - - -
27/03:30pm 19.5 NNW 30 39 1010.1 - 0.8 - - - - - - -
27/03:00pm 18.8 NNW 29 40 1010.2 - 0.8 Rain - - - - - -
27/02:47pm 18.2 N 26 37 1010.1 - 0.6 - - - - - - -
27/02:30pm 19.4 N 25 33 1010.6 - 0.4 - - - - - - -
27/02:13pm 19.1 N 27 37 1010.5 - 0.4 - - - - - - -
27/02:00pm 18.7 N 28 36 1010.6 - 0.4 - - - - - - -
27/01:30pm 17.8 N 27 40 1011.4 - 0.4 - - - - - - -
27/01:13pm 19.3 N 28 38 1011.2 - 0.0 - - - - - - -
27/01:00pm 20.2 N 28 36 1011.5 - 0.0 - - - - - - -
27/12:30pm 19.7 N 28 36 1012.2 - 0.0 - - - - - - -
27/12:00pm 19.4 N 27 34 1012.7 - 0.0 - - - - - - -
27/11:30am 19.1 N 25 32 1013.4 - 0.0 - - - - - - -
27/11:00am 18.8 N 25 32 1014.1 - 0.0 - - - - - - -
27/10:48am 18.2 N 24 34 1014.0 - 0.0 - - - - - - -
27/10:30am 17.4 N 24 31 1014.5 - 0.0 - - - - - - -
27/10:00am 17.4 N 23 30 1015.0 - 0.0 - - - - - - -
27/09:30am 17.9 N 23 29 1015.0 - 0.0 - - - - - - -
27/09:00am 17.8 N 23 29 1015.2 - 0.2 - - - - - - -
27/08:30am 17.3 N 19 25 1015.4 - 0.2 - - - - - - -
27/08:00am 16.6 N 21 26 1015.3 - 0.2 - - - - - - -
27/07:30am 16.3 N 19 26 1015.5 - 0.2 - - - - - - -
27/07:00am 16.1 N 21 26 1015.1 - 0.2 - - - - - - -
27/06:30am 15.8 NNE 21 25 1015.2 - 0.2 - - - - - - -
27/06:00am 15.8 NNE 19 24 1015.3 - 0.2 - - - - - - -
27/05:30am 15.4 NNE 14 18 1015.7 - 0.2 - - - - - - -
27/05:00am 15.3 NNE 15 19 1016.0 - 0.2 - - - - - - -
27/04:30am 15.1 NE 13 16 1016.7 - 0.2 - - - - - - -
27/04:00am 14.9 NE 11 16 1017.2 - 0.2 - - - - - - -
27/03:30am 15.0 NE 11 15 1017.4 - 0.2 - - - - - - -
27/03:00am 14.8 NE 9 14 1017.6 - 0.2 - - - - - - -
27/02:30am 14.7 NE 10 14 1017.9 - 0.2 - - - - - - -
27/02:00am 15.0 NE 8 10 1018.3 - 0.2 - - - - - - -
27/01:30am 15.2 NE 7 10 1018.6 - 0.2 - - - - - - -
27/01:00am 14.9 ENE 8 10 1018.7 - 0.2 - - - - - - -
27/12:30am 15.5 NE 7 10 1019.0 - 0.2 - - - - - - -
27/12:00am 16.3 SSW 2 5 1019.3 - 0.2 - - - - - - -
 
Date/Time
WST
Temp
°C
Wind Pressure Rain since
9am
mm
Weather Cloud Vis
km
Sea
Height
m
Swell
Dir  Spd
kts
Gust
kts
hPa Trend Height
m
Period
s
Dir
26/11:30pm 16.5 CALM 0 0 1019.7 - 0.2 - - - - - - -
26/11:00pm 16.5 CALM 0 0 1019.9 - 0.2 - - - - - - -
26/10:30pm 16.3 SSW 1 3 1019.9 - 0.2 - - - - - - -
26/10:00pm 16.2 SSW 4 4 1020.0 - 0.2 - - - - - - -
26/09:30pm 16.0 SSW 4 5 1020.1 - 0.2 - - - - - - -
26/09:00pm 15.8 SSW 5 6 1020.0 - 0.2 - - - - - - -
26/08:30pm 15.4 SW 7 11 1019.9 - 0.2 - - - - - - -
26/08:00pm 15.5 SW 5 7 1019.9 - 0.2 - - - - - - -
26/07:30pm 15.5 SW 9 11 1019.7 - 0.2 - - - - - - -
26/07:00pm 16.0 SW 9 11 1019.7 - 0.2 - - - - - - -
26/06:30pm 16.2 SW 10 13 1019.5 - 0.2 - - - - - - -
26/06:00pm 16.5 SSW 9 13 1019.0 - 0.2 - - - - - - -
26/05:30pm 16.0 SW 7 12 1018.9 - 0.2 - - - - - - -
26/05:00pm 16.9 SW 12 16 1018.8 - 0.2 - - - - - - -
26/04:30pm 16.9 WSW 9 12 1018.5 - 0.2 - - - - - - -
26/04:00pm 17.2 WSW 13 17 1018.2 - 0.2 - - - - - - -
26/03:30pm 16.8 SW 16 20 1017.8 - 0.2 - - - - - - -
26/03:00pm 16.8 SW 15 22 1017.5 - 0.2 Recent precip. - - - - - -
26/02:30pm 17.5 SW 16 19 1017.2 - 0.0 - - - - - - -
26/02:00pm 18.1 SW 17 23 1016.8 - 0.0 - - - - - - -
26/01:30pm 19.3 WSW 17 21 1017.0 - 0.0 - - - - - - -
26/01:00pm 19.0 WSW 16 20 1016.9 - 0.0 - - - - - - -
26/12:30pm 19.6 W 16 21 1017.0 - 0.0 - - - - - - -
26/12:00pm 19.2 WSW 21 26 1017.1 - 0.0 - - - - - - -
26/11:30am 18.6 WSW 18 24 1017.3 - 0.0 - - - - - - -
26/11:00am 18.1 W 20 27 1017.3 - 0.0 - - - - - - -
26/10:30am 17.7 WNW 22 30 1017.0 - 0.0 - - - - - - -
26/10:06am 18.8 WNW 18 29 1017.0 - 0.0 - - - - - - -
26/10:00am 18.6 WNW 18 23 1017.0 - 0.0 - - - - - - -
26/09:30am 18.9 NW 21 27 1016.8 - 0.0 - - - - - - -
26/09:00am 17.7 WNW 23 30 1016.7 - 2.2 Recent precip. - - - - - -
26/08:35am 17.4 NW 22 32 1016.5 - 2.2 - - - - - - -
26/08:30am 17.0 NW 23 32 1016.5 - 2.2 - - - - - - -
26/08:02am 16.2 NW 24 38 1015.9 - 1.0 - - - - - - -
26/08:00am 18.9 NW 22 28 1016.0 - 0.2 - - - - - - -
26/07:30am 18.7 NW 23 31 1015.8 - 0.2 - - - - - - -
26/07:00am 18.7 NNW 24 31 1015.3 - 0.2 - - - - - - -
26/06:30am 18.7 NW 23 29 1015.3 - 0.2 - - - - - - -
26/06:00am 18.3 NW 22 31 1015.1 - 0.2 - - - - - - -
26/05:58am 18.2 NW 21 31 1015.1 - 0.2 - - - - - - -
26/05:30am 18.3 NNW 23 29 1014.9 - 0.2 - - - - - - -
26/05:00am 18.4 NW 22 28 1015.2 - 0.2 - - - - - - -
26/04:30am 18.3 NW 23 30 1015.4 - 0.2 - - - - - - -
26/04:00am 18.2 NW 22 27 1015.6 - 0.2 - - - - - - -
26/03:30am 18.1 NW 23 29 1015.7 - 0.2 - - - - - - -
26/03:15am 17.6 NW 27 37 1015.4 - 0.2 - - - - - - -
26/03:00am 18.0 NW 22 29 1015.7 - 0.2 - - - - - - -
26/02:30am 17.2 NNW 22 27 1015.8 - 0.2 - - - - - - -
26/02:02am 17.3 NW 23 33 1015.9 - 0.2 - - - - - - -
26/02:00am 17.1 NW 25 33 1015.9 - 0.2 - - - - - - -
26/01:30am 17.0 NNW 22 30 1016.1 - 0.2 - - - - - - -
26/01:13am 16.9 NNW 20 30 1016.5 - 0.2 - - - - - - -
26/01:00am 18.1 NNW 22 27 1016.4 - 0.2 - - - - - - -

Other Formats:

Comma delimited format used in spreadsheet applications
http://www.bom.gov.au/fwo/IDW60701/IDW60701.94602.axf

JavaScript Object Notation format (JSON) in row-major order
http://www.bom.gov.au/fwo/IDW60701/IDW60701.94602.json